Hilversum, Netherlands
Current Conditions -  °F | °C
As of 11:25 AM on Thursday 23 Oct 2014 (Local Time) from EHAM Reporting Station
Scattered Clouds Scattered Clouds  
Wind Chill: 55°   Ceiling: Unl
Heat Index: 55°   Visibility: 6mi
Dew Point: 52°   Wind: 12mph
Humidity: 88%   Direction: 190°S
Pressure: 30.15"   Gusts: NA
Location:  52.23°N, 5.16°E
Report Text: EHAM 230925Z 19010KT 9999 SCT021 SCT036 13/11 Q1021 NOSIG
Loading
Personal Weather Stations






























Interactive Weather Map
Tropical Storm Tracking
New forecast layout! Learn more

10-Day Weather Forecast

Advertisements
Track Severe Weather on mobile